Time;durP1;ratioP1;P1;durP2;ratioP2;P2;SDS_P1;SDS_P2;PMS_P1;PMS_P2;Temp;Humidity;BMP_temperature;BMP_pressure;BME280_temperature;BME280_humidity;BME280_pressure;Samples;Min_cycle;Max_cycle;Signal;HPM_P1;HPM_P2
2021/09/14 00:01:39;;;;;;;11.07;3.15;;;;;;;;;;5002489;28;20050;-52
2021/09/14 00:04:07;;;;;;;8.63;2.95;;;;;;;;;;5002815;28;20042;-50
2021/09/14 00:06:38;;;;;;;10.13;3.57;;;;;;;;;;4998862;28;20038;-54
2021/09/14 00:09:05;;;;;;;6.28;3.13;;;;;;;;;;5002445;28;20081;-51
2021/09/14 00:11:31;;;;;;;8.98;3.08;;;;;;;;;;4995589;28;20049;-49
2021/09/14 00:13:58;;;;;;;6.10;2.72;;;;;;;;;;5004253;28;20050;-52
2021/09/14 00:16:24;;;;;;;8.57;3.45;;;;;;;;;;5001423;28;20049;-54
2021/09/14 00:18:51;;;;;;;7.03;3.05;;;;;;;;;;5006290;28;20037;-53
2021/09/14 00:21:19;;;;;;;7.97;3.38;;;;;;;;;;5000132;28;20053;-53
2021/09/14 00:23:45;;;;;;;9.47;3.23;;;;;;;;;;5003790;28;20046;-53
2021/09/14 00:26:12;;;;;;;7.68;3.13;;;;;;;;;;5002476;28;20022;-48
2021/09/14 00:28:38;;;;;;;8.32;3.55;;;;;;;;;;5009062;28;20042;-53
2021/09/14 00:31:05;;;;;;;8.43;3.40;;;;;;;;;;5002885;28;20124;-53
2021/09/14 00:33:31;;;;;;;8.07;3.33;;;;;;;;;;5003262;28;20124;-50
2021/09/14 00:35:58;;;;;;;8.65;3.35;;;;;;;;;;5005056;28;20067;-55
2021/09/14 00:38:26;;;;;;;10.40;3.75;;;;;;;;;;5001492;28;20057;-52
2021/09/14 00:40:52;;;;;;;9.13;3.63;;;;;;;;;;5005174;28;20046;-54
2021/09/14 00:43:19;;;;;;;8.23;3.55;;;;;;;;;;5002065;28;20294;-50
2021/09/14 00:45:47;;;;;;;8.25;3.58;;;;;;;;;;5005331;28;20062;-52
2021/09/14 00:48:13;;;;;;;8.48;3.63;;;;;;;;;;5001255;28;20034;-54
2021/09/14 00:50:40;;;;;;;8.07;3.83;;;;;;;;;;5004343;28;20065;-54
2021/09/14 00:53:07;;;;;;;7.80;3.33;;;;;;;;;;5001037;28;20313;-51
2021/09/14 00:55:35;;;;;;;10.70;3.42;;;;;;;;;;5006012;28;20058;-53
2021/09/14 00:58:01;;;;;;;9.43;3.50;;;;;;;;;;5002622;28;20058;-53
2021/09/14 01:00:28;;;;;;;7.80;3.47;;;;;;;;;;5004709;28;20045;-54
2021/09/14 01:02:55;;;;;;;7.60;3.60;;;;;;;;;;5002370;28;20132;-49
2021/09/14 01:05:22;;;;;;;11.82;3.75;;;;;;;;;;5004682;28;20136;-51
2021/09/14 01:07:49;;;;;;;9.00;3.75;;;;;;;;;;5001640;28;20061;-53
2021/09/14 01:10:15;;;;;;;8.55;3.55;;;;;;;;;;5003379;28;20046;-53
2021/09/14 01:12:43;;;;;;;7.35;3.83;;;;;;;;;;5001765;28;20042;-54
2021/09/14 01:15:11;;;;;;;11.07;3.80;;;;;;;;;;5001343;28;20053;-52
2021/09/14 01:17:37;;;;;;;8.60;3.97;;;;;;;;;;5006791;28;20046;-54
2021/09/14 01:20:04;;;;;;;11.35;4.22;;;;;;;;;;5003169;28;20046;-56
2021/09/14 01:22:32;;;;;;;9.50;3.88;;;;;;;;;;5004932;28;20046;-54
2021/09/14 01:24:59;;;;;;;7.97;3.63;;;;;;;;;;5000521;28;20050;-51
2021/09/14 01:27:25;;;;;;;7.82;4.10;;;;;;;;;;5004817;28;20046;-52
2021/09/14 01:32:35;;;;;;;9.98;4.00;;;;;;;;;;5002945;28;20576;-55
2021/09/14 01:35:06;;;;;;;13.23;4.95;;;;;;;;;;5001747;28;20053;-50
2021/09/14 01:37:34;;;;;;;9.93;4.45;;;;;;;;;;5006229;28;20050;-55
2021/09/14 01:40:00;;;;;;;12.20;4.40;;;;;;;;;;5003845;28;20106;-54
2021/09/14 01:42:27;;;;;;;8.60;3.97;;;;;;;;;;5026045;28;20275;-56
2021/09/14 01:44:54;;;;;;;9.75;4.43;;;;;;;;;;5005103;28;20049;-52
2021/09/14 01:47:20;;;;;;;9.98;4.13;;;;;;;;;;5023921;28;20160;-54
2021/09/14 01:49:46;;;;;;;13.35;4.25;;;;;;;;;;4998700;28;20054;-53
2021/09/14 01:52:13;;;;;;;10.20;4.72;;;;;;;;;;5006287;28;20045;-54
2021/09/14 01:54:41;;;;;;;10.52;4.30;;;;;;;;;;5019775;28;20054;-51
2021/09/14 01:57:09;;;;;;;12.57;4.35;;;;;;;;;;5005701;28;20057;-53
2021/09/14 01:59:36;;;;;;;12.25;4.45;;;;;;;;;;5003372;28;20041;-55
2021/09/14 02:02:08;;;;;;;10.88;4.53;;;;;;;;;;5023978;28;20128;-53
2021/09/14 02:04:43;;;;;;;20.13;5.22;;;;;;;;;;5005192;28;20034;-55
2021/09/14 02:40:49;;;;;;;12.43;5.32;;;;;;;;;;5059925;28;20061;-55
2021/09/14 02:43:37;;;;;;;11.02;4.78;;;;;;;;;;5073238;28;20044;-54
2021/09/14 03:00:00;;;;;;;;;;;;;;;;;;5060825;28;20045;-55
2021/09/14 03:02:28;;;;;;;10.65;4.53;;;;;;;;;;5073765;28;19924;-57
2021/09/14 03:04:54;;;;;;;13.47;5.07;;;;;;;;;;5078969;28;20098;-55
2021/09/14 03:07:21;;;;;;;12.13;4.90;;;;;;;;;;5057167;28;20040;-56
2021/09/14 03:09:47;;;;;;;11.23;4.97;;;;;;;;;;5061391;28;20036;-52
2021/09/14 03:12:14;;;;;;;10.05;4.97;;;;;;;;;;5074156;28;20040;-53
2021/09/14 03:14:40;;;;;;;10.88;4.70;;;;;;;;;;5056514;28;20028;-57
2021/09/14 03:17:07;;;;;;;11.90;5.35;;;;;;;;;;5060753;28;20162;-53
2021/09/14 03:19:34;;;;;;;11.63;4.63;;;;;;;;;;5087380;28;20045;-56
2021/09/14 03:22:01;;;;;;;10.00;5.13;;;;;;;;;;5076639;28;20061;-56
2021/09/14 03:24:27;;;;;;;8.93;4.18;;;;;;;;;;5057682;28;20048;-55
2021/09/14 03:26:57;;;;;;;9.73;4.68;;;;;;;;;;5061522;28;20088;-54
2021/09/14 03:29:23;;;;;;;14.60;5.25;;;;;;;;;;5069151;28;20032;-55
2021/09/14 03:31:50;;;;;;;11.98;4.82;;;;;;;;;;5062718;28;20029;-56
2021/09/14 03:34:17;;;;;;;12.75;5.38;;;;;;;;;;5073227;28;20048;-56
2021/09/14 03:36:44;;;;;;;15.60;5.55;;;;;;;;;;5050220;28;20119;-55
2021/09/14 03:39:11;;;;;;;10.80;5.20;;;;;;;;;;5041390;28;20044;-54
2021/09/14 03:41:37;;;;;;;14.75;6.07;;;;;;;;;;5041779;28;20038;-57
2021/09/14 03:44:04;;;;;;;14.40;5.68;;;;;;;;;;5041225;28;20038;-54
2021/09/14 03:46:34;;;;;;;12.45;5.68;;;;;;;;;;5044811;28;20041;-54
2021/09/14 03:49:02;;;;;;;11.50;5.18;;;;;;;;;;5041650;28;20048;-54
2021/09/14 03:51:36;;;;;;;13.57;5.47;;;;;;;;;;5036087;28;20037;-56
2021/09/14 03:54:04;;;;;;;12.65;5.82;;;;;;;;;;5061412;28;20040;-55
2021/09/14 03:56:30;;;;;;;12.15;5.50;;;;;;;;;;5080044;28;20048;-55
2021/09/14 03:58:57;;;;;;;13.20;5.50;;;;;;;;;;5048986;28;20041;-55
2021/09/14 04:01:23;;;;;;;12.30;5.47;;;;;;;;;;5063357;28;20173;-56
2021/09/14 04:03:56;;;;;;;10.77;5.47;;;;;;;;;;5066752;28;20048;-57
2021/09/14 04:06:52;;;;;;;12.02;4.90;;;;;;;;;;5058014;28;20059;-55
2021/09/14 04:09:20;;;;;;;10.63;5.10;;;;;;;;;;5078984;28;20044;-50
2021/09/14 04:11:48;;;;;;;9.87;5.03;;;;;;;;;;5080377;28;20052;-54
2021/09/14 04:14:15;;;;;;;13.65;5.85;;;;;;;;;;5084956;28;20085;-56
2021/09/14 04:16:41;;;;;;;11.02;5.60;;;;;;;;;;5058922;28;20040;-56
2021/09/14 04:19:08;;;;;;;13.27;5.72;;;;;;;;;;5080121;28;20079;-56
2021/09/14 04:21:35;;;;;;;12.88;5.85;;;;;;;;;;5064098;28;20036;-57
2021/09/14 04:24:01;;;;;;;11.45;5.30;;;;;;;;;;5067434;28;20133;-55
2021/09/14 04:26:29;;;;;;;11.98;5.63;;;;;;;;;;5070516;28;20134;-53
2021/09/14 04:28:56;;;;;;;11.77;5.53;;;;;;;;;;5063542;28;20205;-54
2021/09/14 04:31:22;;;;;;;15.70;5.78;;;;;;;;;;5080383;28;20032;-55
2021/09/14 04:33:48;;;;;;;11.23;5.65;;;;;;;;;;5066057;28;20040;-54
2021/09/14 04:36:15;;;;;;;17.50;5.88;;;;;;;;;;5063851;28;20051;-55
2021/09/14 04:38:42;;;;;;;13.90;5.38;;;;;;;;;;5066511;28;20044;-55
2021/09/14 04:41:08;;;;;;;11.50;5.38;;;;;;;;;;5061547;28;20117;-54
2021/09/14 04:43:36;;;;;;;13.07;5.60;;;;;;;;;;5066411;28;20043;-52
2021/09/14 04:46:04;;;;;;;15.90;6.03;;;;;;;;;;5062808;28;20043;-52
2021/09/14 04:48:31;;;;;;;11.70;5.70;;;;;;;;;;5061513;28;20053;-54
2021/09/14 04:50:57;;;;;;;12.25;5.72;;;;;;;;;;5047468;28;20049;-55
2021/09/14 04:53:24;;;;;;;15.35;5.95;;;;;;;;;;5062237;28;20044;-57
2021/09/14 04:55:51;;;;;;;15.02;6.38;;;;;;;;;;5052962;28;20037;-55
2021/09/14 04:58:17;;;;;;;11.93;5.60;;;;;;;;;;5073088;28;20040;-55
2021/09/14 05:00:45;;;;;;;15.80;6.15;;;;;;;;;;5080484;28;20049;-55
2021/09/14 05:03:12;;;;;;;12.30;5.97;;;;;;;;;;5076642;28;20051;-54
2021/09/14 05:05:41;;;;;;;13.20;6.18;;;;;;;;;;5062435;28;20078;-53
2021/09/14 05:08:08;;;;;;;13.55;5.72;;;;;;;;;;5076127;28;20088;-56
2021/09/14 05:10:34;;;;;;;14.15;5.57;;;;;;;;;;5083673;28;20044;-52
2021/09/14 05:13:01;;;;;;;12.15;5.72;;;;;;;;;;5058480;28;20049;-53
2021/09/14 05:15:30;;;;;;;13.38;6.65;;;;;;;;;;5079531;28;20155;-52
2021/09/14 05:17:58;;;;;;;13.20;6.95;;;;;;;;;;5079594;28;20082;-56
2021/09/14 05:20:24;;;;;;;16.73;6.30;;;;;;;;;;5064499;28;20040;-57
2021/09/14 05:23:00;;;;;;;15.40;6.30;;;;;;;;;;5079312;28;20101;-52
2021/09/14 05:25:26;;;;;;;15.48;6.35;;;;;;;;;;5052276;28;20053;-55
2021/09/14 05:27:53;;;;;;;13.68;6.45;;;;;;;;;;5037220;28;20037;-53
2021/09/14 05:30:19;;;;;;;12.25;5.85;;;;;;;;;;5038386;28;20049;-55
2021/09/14 05:32:45;;;;;;;12.82;6.20;;;;;;;;;;5040785;28;20041;-56
2021/09/14 05:35:14;;;;;;;12.13;6.43;;;;;;;;;;5056472;28;20053;-55
2021/09/14 05:37:41;;;;;;;12.98;6.25;;;;;;;;;;5040959;28;20056;-52
2021/09/14 05:40:07;;;;;;;17.50;6.15;;;;;;;;;;5035720;28;20064;-54
2021/09/14 05:42:34;;;;;;;12.65;5.63;;;;;;;;;;5038943;28;20064;-56
2021/09/14 05:45:00;;;;;;;15.05;6.30;;;;;;;;;;5036562;28;20052;-55
2021/09/14 05:47:26;;;;;;;13.90;6.47;;;;;;;;;;5037930;28;20041;-59
2021/09/14 05:49:54;;;;;;;13.70;6.38;;;;;;;;;;5033957;28;20052;-55
2021/09/14 05:52:22;;;;;;;15.90;7.72;;;;;;;;;;5040129;28;20045;-54
2021/09/14 05:54:49;;;;;;;16.13;8.00;;;;;;;;;;5033523;28;20048;-57
2021/09/14 05:57:16;;;;;;;14.15;7.05;;;;;;;;;;5040108;28;20049;-53
2021/09/14 05:59:42;;;;;;;15.05;6.57;;;;;;;;;;5034860;28;20033;-55
2021/09/14 06:02:09;;;;;;;14.68;6.85;;;;;;;;;;5038958;28;20121;-54
2021/09/14 06:04:36;;;;;;;15.23;6.57;;;;;;;;;;5036192;28;20033;-55
2021/09/14 06:07:02;;;;;;;16.92;6.82;;;;;;;;;;5039731;28;20057;-54
2021/09/14 06:09:30;;;;;;;12.88;7.07;;;;;;;;;;5032874;28;20056;-55
2021/09/14 06:11:57;;;;;;;12.47;6.03;;;;;;;;;;5021078;28;20065;-53
2021/09/14 06:14:23;;;;;;;14.48;6.57;;;;;;;;;;5022027;28;20314;-57
2021/09/14 06:16:49;;;;;;;12.85;7.00;;;;;;;;;;5053154;28;20052;-53
2021/09/14 06:19:17;;;;;;;13.68;6.60;;;;;;;;;;5040420;28;20117;-55
2021/09/14 06:21:43;;;;;;;15.18;6.63;;;;;;;;;;5032281;28;20058;-52
2021/09/14 06:24:10;;;;;;;12.98;5.93;;;;;;;;;;5018088;28;20053;-56
2021/09/14 06:26:38;;;;;;;14.63;6.85;;;;;;;;;;5038100;28;20041;-55
2021/09/14 06:29:05;;;;;;;13.65;6.38;;;;;;;;;;5027188;28;20057;-54
2021/09/14 06:31:31;;;;;;;13.90;6.72;;;;;;;;;;5037609;28;20072;-54
2021/09/14 06:34:00;;;;;;;13.00;6.13;;;;;;;;;;5043851;28;20029;-56
2021/09/14 06:36:27;;;;;;;13.48;6.82;;;;;;;;;;5038893;28;20033;-57
2021/09/14 06:38:53;;;;;;;16.35;7.05;;;;;;;;;;5043117;28;20033;-54
2021/09/14 06:41:21;;;;;;;14.73;7.05;;;;;;;;;;5038092;28;20041;-54
2021/09/14 06:43:50;;;;;;;15.25;6.90;;;;;;;;;;5055169;28;20049;-56
2021/09/14 06:46:16;;;;;;;17.17;7.53;;;;;;;;;;5037660;28;20041;-56
2021/09/14 06:48:45;;;;;;;15.48;7.53;;;;;;;;;;5042415;28;20045;-56
2021/09/14 06:51:13;;;;;;;11.85;5.72;;;;;;;;;;5035346;28;20057;-51
2021/09/14 06:53:39;;;;;;;14.30;7.10;;;;;;;;;;5021278;28;20057;-56
2021/09/14 06:56:06;;;;;;;15.50;7.05;;;;;;;;;;5028284;28;20053;-56
2021/09/14 06:58:36;;;;;;;14.48;6.57;;;;;;;;;;5040940;28;20053;-56
2021/09/14 07:01:05;;;;;;;12.63;6.90;;;;;;;;;;5057487;28;20033;-56
2021/09/14 07:03:32;;;;;;;16.50;7.13;;;;;;;;;;5046878;28;20053;-57
2021/09/14 07:05:58;;;;;;;14.30;6.60;;;;;;;;;;5060180;28;20035;-55
2021/09/14 07:08:24;;;;;;;15.60;6.82;;;;;;;;;;5057386;28;20049;-56
2021/09/14 07:10:51;;;;;;;14.88;6.85;;;;;;;;;;5055656;28;20037;-56
2021/09/14 07:13:17;;;;;;;14.70;6.85;;;;;;;;;;5052148;28;20052;-54
2021/09/14 07:15:45;;;;;;;16.02;6.72;;;;;;;;;;5065262;28;20052;-54
2021/09/14 07:18:13;;;;;;;18.23;7.32;;;;;;;;;;5038650;28;20045;-56
2021/09/14 07:20:39;;;;;;;13.47;6.93;;;;;;;;;;5047252;28;20033;-56
2021/09/14 07:23:06;;;;;;;14.98;7.03;;;;;;;;;;5045971;28;20103;-55
2021/09/14 07:25:38;;;;;;;17.08;6.63;;;;;;;;;;5022557;28;20049;-58
2021/09/14 07:28:05;;;;;;;18.35;7.30;;;;;;;;;;5026188;28;20078;-57
2021/09/14 07:30:31;;;;;;;15.43;7.47;;;;;;;;;;5043516;28;20041;-55
2021/09/14 07:32:58;;;;;;;13.63;6.70;;;;;;;;;;5036707;28;20065;-57
2021/09/14 07:35:27;;;;;;;12.95;6.90;;;;;;;;;;5025579;28;20042;-57
2021/09/14 07:37:53;;;;;;;15.50;7.03;;;;;;;;;;5020828;28;20038;-56
2021/09/14 07:40:19;;;;;;;13.77;7.55;;;;;;;;;;5040461;28;20066;-55
2021/09/14 07:42:46;;;;;;;17.30;7.65;;;;;;;;;;5038390;28;20050;-58
2021/09/14 07:45:17;;;;;;;14.27;7.43;;;;;;;;;;5034966;28;20050;-55
2021/09/14 07:47:47;;;;;;;14.55;7.18;;;;;;;;;;5039137;28;20156;-55
2021/09/14 07:50:13;;;;;;;14.10;6.90;;;;;;;;;;5037255;28;20057;-57
2021/09/14 07:52:41;;;;;;;16.08;7.78;;;;;;;;;;5024214;28;20042;-57
2021/09/14 07:55:08;;;;;;;15.77;7.50;;;;;;;;;;5018779;28;20041;-57
2021/09/14 07:57:35;;;;;;;20.23;8.00;;;;;;;;;;5025026;28;20048;-58
2021/09/14 08:00:01;;;;;;;14.52;7.57;;;;;;;;;;5019023;28;20096;-57
2021/09/14 08:02:28;;;;;;;19.17;8.07;;;;;;;;;;5026547;28;20045;-55
2021/09/14 08:04:58;;;;;;;17.40;7.88;;;;;;;;;;5021583;28;20053;-57
2021/09/14 08:07:24;;;;;;;15.40;7.30;;;;;;;;;;5023297;28;20037;-57
2021/09/14 08:09:52;;;;;;;14.98;7.82;;;;;;;;;;5021555;28;20030;-56
2021/09/14 08:12:18;;;;;;;17.67;7.78;;;;;;;;;;5024808;28;20052;-55
2021/09/14 08:14:45;;;;;;;16.55;7.57;;;;;;;;;;5018186;28;20042;-57
2021/09/14 08:17:15;;;;;;;15.45;7.65;;;;;;;;;;5005214;28;20148;-56
2021/09/14 08:19:42;;;;;;;18.60;7.72;;;;;;;;;;5002601;28;20143;-56
2021/09/14 08:22:08;;;;;;;19.10;8.77;;;;;;;;;;5016778;28;20037;-58
2021/09/14 08:24:35;;;;;;;16.23;8.50;;;;;;;;;;5005979;28;20120;-55
2021/09/14 08:27:03;;;;;;;18.70;7.57;;;;;;;;;;5044762;28;20055;-55
2021/09/14 08:29:29;;;;;;;23.23;9.77;;;;;;;;;;5025488;28;20122;-59
2021/09/14 08:31:56;;;;;;;21.75;9.05;;;;;;;;;;5039931;28;20114;-57
2021/09/14 08:34:26;;;;;;;19.20;9.60;;;;;;;;;;5045320;28;20078;-55
2021/09/14 08:36:52;;;;;;;19.52;8.60;;;;;;;;;;5041249;28;20072;-55
2021/09/14 08:39:18;;;;;;;18.58;8.07;;;;;;;;;;5063926;28;20045;-56
2021/09/14 08:41:45;;;;;;;20.77;9.55;;;;;;;;;;5061287;28;20033;-56
2021/09/14 08:44:13;;;;;;;20.00;9.25;;;;;;;;;;5045591;28;20061;-58
2021/09/14 08:46:42;;;;;;;16.27;9.00;;;;;;;;;;5059377;28;20045;-58
2021/09/14 08:49:10;;;;;;;18.13;9.20;;;;;;;;;;5063164;28;20044;-59
2021/09/14 08:51:36;;;;;;;22.58;9.98;;;;;;;;;;5036083;28;20049;-56
2021/09/14 08:54:03;;;;;;;21.63;10.27;;;;;;;;;;5043846;28;20111;-59
2021/09/14 08:56:29;;;;;;;18.40;9.55;;;;;;;;;;5041438;28;20057;-58
2021/09/14 08:58:57;;;;;;;20.55;9.57;;;;;;;;;;5047009;28;20033;-59
2021/09/14 09:01:25;;;;;;;17.65;9.40;;;;;;;;;;5042385;28;20032;-59
2021/09/14 09:03:57;;;;;;;21.15;9.38;;;;;;;;;;5046176;28;20040;-58
2021/09/14 09:06:30;;;;;;;22.33;8.27;;;;;;;;;;5039841;28;20413;-58
2021/09/14 09:09:09;;;;;;;19.15;8.88;;;;;;;;;;5038441;28;20037;-57
2021/09/14 09:11:36;;;;;;;17.70;8.85;;;;;;;;;;5079942;28;20056;-59
2021/09/14 09:14:06;;;;;;;16.58;8.73;;;;;;;;;;5056963;28;20095;-58
2021/09/14 09:16:34;;;;;;;14.82;7.78;;;;;;;;;;5042897;28;20048;-59
2021/09/14 09:19:02;;;;;;;18.80;9.50;;;;;;;;;;5035690;28;20037;-58
2021/09/14 09:21:29;;;;;;;21.88;8.40;;;;;;;;;;5065829;28;20052;-57
2021/09/14 09:23:57;;;;;;;21.60;9.10;;;;;;;;;;5061285;28;20137;-59
2021/09/14 09:26:29;;;;;;;15.88;7.90;;;;;;;;;;5083361;28;20032;-57
2021/09/14 09:28:58;;;;;;;16.13;8.40;;;;;;;;;;5057789;28;20110;-58
2021/09/14 09:31:25;;;;;;;17.75;8.13;;;;;;;;;;5062584;28;20025;-56
2021/09/14 09:34:01;;;;;;;15.57;8.45;;;;;;;;;;5049062;28;20044;-59
2021/09/14 09:36:29;;;;;;;16.95;7.53;;;;;;;;;;5064166;28;20052;-60
2021/09/14 09:38:58;;;;;;;14.37;8.10;;;;;;;;;;5061896;28;20040;-58
2021/09/14 09:41:24;;;;;;;15.40;7.20;;;;;;;;;;5065273;28;20295;-58
2021/09/14 09:43:51;;;;;;;15.20;6.97;;;;;;;;;;5060415;28;20078;-58
2021/09/14 09:46:21;;;;;;;20.05;8.00;;;;;;;;;;5080037;28;20106;-57
2021/09/14 09:48:48;;;;;;;20.60;7.47;;;;;;;;;;5075927;28;20032;-59
2021/09/14 09:51:15;;;;;;;15.07;7.18;;;;;;;;;;5078977;28;20041;-58
2021/09/14 09:53:42;;;;;;;13.57;6.47;;;;;;;;;;5074287;28;20059;-58
2021/09/14 09:56:09;;;;;;;15.23;7.65;;;;;;;;;;5079233;28;20044;-58
2021/09/14 09:58:36;;;;;;;15.77;7.85;;;;;;;;;;5061612;28;20032;-58
2021/09/14 10:01:04;;;;;;;18.02;7.30;;;;;;;;;;5066573;28;20052;-58
2021/09/14 10:03:32;;;;;;;14.85;7.85;;;;;;;;;;5062383;28;20040;-58
2021/09/14 10:06:01;;;;;;;18.38;7.82;;;;;;;;;;5064715;28;20041;-58
2021/09/14 10:08:29;;;;;;;15.00;7.50;;;;;;;;;;5061156;28;20036;-58
2021/09/14 10:10:57;;;;;;;17.98;8.27;;;;;;;;;;5061873;28;20129;-58
2021/09/14 10:13:29;;;;;;;18.80;8.18;;;;;;;;;;5063661;28;20078;-58
2021/09/14 10:15:57;;;;;;;21.23;7.95;;;;;;;;;;5059933;28;20048;-58
2021/09/14 10:18:27;;;;;;;16.67;7.30;;;;;;;;;;5078852;28;20044;-58
2021/09/14 10:20:54;;;;;;;14.85;8.07;;;;;;;;;;5075629;28;20044;-58
2021/09/14 10:23:23;;;;;;;17.92;9.02;;;;;;;;;;5064287;28;20043;-59
2021/09/14 10:26:02;;;;;;;15.23;7.55;;;;;;;;;;5058519;28;20044;-59
2021/09/14 10:28:28;;;;;;;15.57;7.82;;;;;;;;;;5077738;28;20052;-59
2021/09/14 10:30:54;;;;;;;22.73;8.07;;;;;;;;;;5072985;28;20037;-59
2021/09/14 10:33:21;;;;;;;16.38;7.72;;;;;;;;;;5065421;28;20101;-59
2021/09/14 10:35:51;;;;;;;17.10;8.27;;;;;;;;;;5061002;28;20096;-59
2021/09/14 10:38:18;;;;;;;20.05;8.48;;;;;;;;;;5064283;28;20077;-59
2021/09/14 10:40:45;;;;;;;16.30;8.57;;;;;;;;;;5060517;28;20036;-60
2021/09/14 10:43:27;;;;;;;18.92;9.00;;;;;;;;;;5065235;28;20040;-59
2021/09/14 10:45:54;;;;;;;14.43;8.20;;;;;;;;;;5057044;28;20049;-59
2021/09/14 10:48:25;;;;;;;14.90;8.30;;;;;;;;;;5064855;28;20052;-58
2021/09/14 10:50:52;;;;;;;19.00;7.35;;;;;;;;;;5081420;28;20040;-59
2021/09/14 10:53:23;;;;;;;19.92;9.95;;;;;;;;;;5086371;28;20048;-59
2021/09/14 10:55:52;;;;;;;16.13;8.13;;;;;;;;;;5055670;28;20044;-59
2021/09/14 10:58:18;;;;;;;18.90;8.35;;;;;;;;;;5086452;28;20044;-59
2021/09/14 11:00:48;;;;;;;17.27;8.35;;;;;;;;;;5062854;28;20040;-59
2021/09/14 11:03:15;;;;;;;14.82;6.85;;;;;;;;;;5064357;28;20040;-59
2021/09/14 11:05:46;;;;;;;21.20;8.18;;;;;;;;;;5065776;28;20051;-59
2021/09/14 11:08:12;;;;;;;16.92;7.85;;;;;;;;;;5063287;28;20049;-60
2021/09/14 11:10:40;;;;;;;14.18;7.07;;;;;;;;;;5082609;28;20055;-59
2021/09/14 11:13:06;;;;;;;13.40;6.78;;;;;;;;;;5077234;28;20045;-59
2021/09/14 11:15:36;;;;;;;19.00;8.07;;;;;;;;;;5079945;28;20044;-60
2021/09/14 11:18:04;;;;;;;18.48;8.13;;;;;;;;;;5067847;28;20049;-59
2021/09/14 11:20:30;;;;;;;15.85;8.18;;;;;;;;;;5065785;28;20037;-59
2021/09/14 11:22:59;;;;;;;14.10;7.00;;;;;;;;;;5081033;28;20032;-59
2021/09/14 11:25:27;;;;;;;15.23;7.20;;;;;;;;;;5085445;28;20040;-60
2021/09/14 11:27:54;;;;;;;16.23;7.32;;;;;;;;;;5052134;28;20043;-59
2021/09/14 11:30:20;;;;;;;18.60;7.82;;;;;;;;;;5066599;28;20094;-59
2021/09/14 11:32:47;;;;;;;12.88;6.57;;;;;;;;;;5048561;28;20114;-59
2021/09/14 11:35:16;;;;;;;14.38;6.88;;;;;;;;;;5084550;28;20117;-60
2021/09/14 11:37:43;;;;;;;12.95;5.85;;;;;;;;;;5064471;28;20032;-59
2021/09/14 11:40:17;;;;;;;15.73;6.47;;;;;;;;;;5065784;28;20048;-59
2021/09/14 11:42:51;;;;;;;12.38;6.70;;;;;;;;;;5061425;28;20048;-59
2021/09/14 11:45:18;;;;;;;15.48;6.53;;;;;;;;;;5056024;28;20051;-59
2021/09/14 11:47:44;;;;;;;12.40;6.55;;;;;;;;;;5061113;28;20040;-59
2021/09/14 11:50:11;;;;;;;17.85;7.15;;;;;;;;;;5065724;28;20059;-60
2021/09/14 11:52:39;;;;;;;18.08;7.90;;;;;;;;;;5065016;28;20048;-60
2021/09/14 11:55:10;;;;;;;13.00;7.30;;;;;;;;;;5068660;28;20048;-60
2021/09/14 11:57:37;;;;;;;17.15;7.50;;;;;;;;;;5084611;28;20040;-59
2021/09/14 12:00:13;;;;;;;15.73;8.43;;;;;;;;;;5069216;28;20125;-59
2021/09/14 12:02:49;;;;;;;14.05;7.07;;;;;;;;;;5065834;28;20033;-59
2021/09/14 12:05:19;;;;;;;18.48;6.88;;;;;;;;;;5080691;28;20056;-59
2021/09/14 12:07:56;;;;;;;15.77;7.65;;;;;;;;;;5065419;28;20044;-59
2021/09/14 12:10:22;;;;;;;15.30;7.97;;;;;;;;;;5045681;28;20041;-59
2021/09/14 12:12:52;;;;;;;17.02;7.93;;;;;;;;;;5056412;28;20049;-60
2021/09/14 12:15:21;;;;;;;17.50;7.32;;;;;;;;;;5032852;28;20086;-60
2021/09/14 12:17:48;;;;;;;17.38;7.03;;;;;;;;;;5044105;28;20060;-59
2021/09/14 12:20:15;;;;;;;14.45;7.65;;;;;;;;;;5023209;28;20052;-59
2021/09/14 12:22:41;;;;;;;15.23;8.40;;;;;;;;;;5044797;28;20094;-59
2021/09/14 12:25:09;;;;;;;17.65;8.48;;;;;;;;;;5029937;28;20041;-59
2021/09/14 12:27:36;;;;;;;14.75;7.07;;;;;;;;;;5045927;28;20045;-59
2021/09/14 12:30:02;;;;;;;16.33;7.63;;;;;;;;;;5030923;28;20052;-59
2021/09/14 12:32:30;;;;;;;16.75;8.57;;;;;;;;;;5040399;28;20052;-59
2021/09/14 12:34:57;;;;;;;15.57;8.60;;;;;;;;;;5042335;28;20033;-60
2021/09/14 12:37:25;;;;;;;14.35;7.80;;;;;;;;;;5042700;28;20048;-59
2021/09/14 12:39:51;;;;;;;15.23;8.05;;;;;;;;;;5036174;28;20049;-58
2021/09/14 12:42:19;;;;;;;16.17;7.60;;;;;;;;;;5036049;28;20138;-58
2021/09/14 12:44:46;;;;;;;13.23;7.70;;;;;;;;;;5055940;28;20049;-58
2021/09/14 12:47:13;;;;;;;12.55;7.18;;;;;;;;;;5044143;28;20044;-58
2021/09/14 12:49:39;;;;;;;16.33;6.32;;;;;;;;;;5041626;28;20045;-58
2021/09/14 12:52:06;;;;;;;18.00;7.05;;;;;;;;;;5040416;28;20037;-58
2021/09/14 12:54:34;;;;;;;17.40;6.65;;;;;;;;;;5059908;28;20048;-58
2021/09/14 12:57:00;;;;;;;11.73;5.10;;;;;;;;;;5041052;28;20049;-58
2021/09/14 12:59:28;;;;;;;11.50;5.97;;;;;;;;;;5060684;28;20289;-58
2021/09/14 13:01:54;;;;;;;14.57;5.43;;;;;;;;;;5055653;28;20136;-59
2021/09/14 13:04:22;;;;;;;9.80;5.55;;;;;;;;;;5061910;28;20041;-58
2021/09/14 13:06:50;;;;;;;11.77;5.60;;;;;;;;;;5039473;28;20037;-58
2021/09/14 13:09:16;;;;;;;10.53;5.33;;;;;;;;;;5041237;28;20042;-58
2021/09/14 13:11:42;;;;;;;10.90;4.80;;;;;;;;;;5038998;28;20041;-58
2021/09/14 13:16:56;;;;;;;10.23;5.47;;;;;;;;;;5037290;28;20029;-58
2021/09/14 13:19:22;;;;;;;14.20;6.47;;;;;;;;;;5041852;28;20061;-58
2021/09/14 13:21:50;;;;;;;14.25;6.22;;;;;;;;;;5057407;28;20043;-58
2021/09/14 13:24:16;;;;;;;15.90;7.20;;;;;;;;;;5061493;28;20044;-59
2021/09/14 13:26:43;;;;;;;10.85;6.35;;;;;;;;;;5072170;28;20045;-58
2021/09/14 13:29:10;;;;;;;9.27;5.20;;;;;;;;;;5044525;28;20041;-58
2021/09/14 13:31:46;;;;;;;11.85;5.22;;;;;;;;;;5041459;28;20085;-57
2021/09/14 13:34:16;;;;;;;11.98;6.10;;;;;;;;;;5061360;28;20040;-58
2021/09/14 13:36:42;;;;;;;10.57;5.55;;;;;;;;;;5041147;28;20084;-58
2021/09/14 13:39:09;;;;;;;10.40;6.05;;;;;;;;;;5046148;28;20068;-58
2021/09/14 13:41:39;;;;;;;11.57;6.10;;;;;;;;;;5044064;28;20033;-58
2021/09/14 13:46:51;;;;;;;13.23;6.22;;;;;;;;;;5064047;28;20060;-58
2021/09/14 13:49:20;;;;;;;13.88;6.25;;;;;;;;;;5059074;28;20098;-57
2021/09/14 13:51:47;;;;;;;14.93;7.28;;;;;;;;;;5037063;28;20041;-57
2021/09/14 13:54:14;;;;;;;14.20;6.72;;;;;;;;;;5064010;28;20036;-58
2021/09/14 13:56:40;;;;;;;14.88;7.38;;;;;;;;;;5045181;28;20094;-57
2021/09/14 13:59:07;;;;;;;12.80;6.70;;;;;;;;;;5072738;28;20048;-58
2021/09/14 14:01:33;;;;;;;12.93;6.68;;;;;;;;;;5083605;28;20047;-58
2021/09/14 14:04:00;;;;;;;16.02;6.47;;;;;;;;;;5061455;28;20093;-58
2021/09/14 14:06:28;;;;;;;13.00;6.22;;;;;;;;;;5066096;28;20048;-57
2021/09/14 14:08:55;;;;;;;15.35;6.00;;;;;;;;;;5053895;28;20047;-57
2021/09/14 14:11:22;;;;;;;12.00;6.20;;;;;;;;;;5054466;28;20097;-55
2021/09/14 14:13:48;;;;;;;11.38;5.93;;;;;;;;;;5080152;28;20048;-57
2021/09/14 14:16:15;;;;;;;12.20;6.30;;;;;;;;;;5064959;28;20025;-56
2021/09/14 14:18:42;;;;;;;11.73;5.88;;;;;;;;;;5057869;28;20045;-57
2021/09/14 14:21:09;;;;;;;13.50;6.35;;;;;;;;;;5063713;28;20050;-57
2021/09/14 14:23:37;;;;;;;13.73;6.53;;;;;;;;;;5029923;28;20041;-57
2021/09/14 14:26:03;;;;;;;12.43;6.78;;;;;;;;;;5054578;28;20041;-58
2021/09/14 14:28:32;;;;;;;12.10;6.57;;;;;;;;;;5033018;28;20049;-57
2021/09/14 14:31:00;;;;;;;13.68;6.75;;;;;;;;;;5037576;28;20045;-58
2021/09/14 14:33:29;;;;;;;14.30;6.78;;;;;;;;;;5044717;28;20106;-57
2021/09/14 14:36:00;;;;;;;13.98;6.80;;;;;;;;;;5040339;28;20069;-57
2021/09/14 14:38:32;;;;;;;12.27;6.32;;;;;;;;;;5042764;28;20065;-58
2021/09/14 14:41:07;;;;;;;15.25;6.57;;;;;;;;;;5041368;28;20052;-58
2021/09/14 14:43:34;;;;;;;12.20;7.15;;;;;;;;;;5060786;28;20036;-58
2021/09/14 14:46:02;;;;;;;14.90;6.25;;;;;;;;;;5059117;28;20063;-56
2021/09/14 14:48:29;;;;;;;12.13;6.47;;;;;;;;;;5079333;28;20040;-56
2021/09/14 14:50:55;;;;;;;15.20;7.05;;;;;;;;;;5059593;28;20052;-57
2021/09/14 14:53:23;;;;;;;17.00;6.28;;;;;;;;;;5061868;28;20052;-57
2021/09/14 14:55:51;;;;;;;13.10;6.65;;;;;;;;;;5078861;28;20055;-57
2021/09/14 14:58:19;;;;;;;16.38;7.65;;;;;;;;;;5043686;28;20041;-55
2021/09/14 15:00:45;;;;;;;14.25;6.90;;;;;;;;;;5036068;28;20048;-57
2021/09/14 15:03:12;;;;;;;16.38;7.65;;;;;;;;;;5062587;28;20120;-56
2021/09/14 15:05:41;;;;;;;14.52;7.15;;;;;;;;;;5037162;28;20045;-57
2021/09/14 15:08:07;;;;;;;13.35;7.43;;;;;;;;;;5032898;28;20049;-57
2021/09/14 15:10:34;;;;;;;16.42;7.05;;;;;;;;;;5055270;28;20118;-57
2021/09/14 15:13:00;;;;;;;15.70;6.85;;;;;;;;;;5061390;28;20037;-57
2021/09/14 15:15:29;;;;;;;13.77;7.15;;;;;;;;;;5057948;28;20127;-57
2021/09/14 15:18:04;;;;;;;14.23;7.32;;;;;;;;;;5060302;28;20063;-57
2021/09/14 15:20:30;;;;;;;13.60;6.75;;;;;;;;;;5062347;28;20036;-57
2021/09/14 15:22:57;;;;;;;12.43;6.85;;;;;;;;;;5057303;28;20045;-55
2021/09/14 15:25:23;;;;;;;13.18;6.63;;;;;;;;;;5080485;28;20052;-57
2021/09/14 15:27:50;;;;;;;14.68;7.28;;;;;;;;;;5075893;28;20045;-57
2021/09/14 15:30:48;;;;;;;13.30;7.03;;;;;;;;;;5062327;28;20044;-56